createdAt,value
2023-04-14T00:02:25.873Z,69.80
2023-04-14T00:04:54.921Z,69.71
2023-04-14T00:07:23.433Z,69.66
2023-04-14T00:09:54.355Z,69.54
2023-04-14T00:12:23.393Z,69.53
2023-04-14T00:14:51.690Z,69.44
2023-04-14T00:17:20.648Z,69.59
2023-04-14T00:19:49.551Z,69.58
2023-04-14T00:22:18.732Z,69.61
2023-04-14T00:24:47.618Z,69.57
2023-04-14T00:27:15.999Z,69.65
2023-04-14T00:29:44.400Z,69.57
2023-04-14T00:32:13.378Z,69.79
2023-04-14T00:34:41.980Z,69.87
2023-04-14T00:37:11.026Z,69.69
2023-04-14T00:39:40.187Z,69.61
2023-04-14T00:42:08.742Z,69.81
2023-04-14T00:44:37.183Z,69.65
2023-04-14T00:47:05.816Z,69.88
2023-04-14T00:49:34.511Z,69.82
2023-04-14T00:52:03.593Z,69.91
2023-04-14T00:54:32.101Z,69.87
2023-04-14T00:57:00.866Z,70.04
2023-04-14T00:59:30.019Z,70.20
2023-04-14T01:01:58.800Z,70.06
2023-04-14T01:04:40.470Z,70.02
2023-04-14T01:07:14.529Z,69.96
2023-04-14T01:09:42.813Z,70.21
2023-04-14T01:12:59.221Z,69.89
2023-04-14T01:15:32.875Z,69.85
2023-04-14T01:18:07.907Z,69.79
2023-04-14T01:20:44.976Z,69.92
2023-04-14T01:23:17.621Z,69.82
2023-04-14T01:26:19.760Z,69.94
2023-04-14T01:28:59.598Z,69.83
2023-04-14T01:31:45.888Z,69.88
2023-04-14T01:34:30.188Z,70.03
2023-04-14T01:37:08.936Z,70.16
2023-04-14T01:39:42.090Z,70.07
2023-04-14T01:42:16.065Z,70.28
2023-04-14T01:44:44.976Z,70.13
2023-04-14T01:47:14.313Z,69.84
2023-04-14T01:49:42.971Z,69.79
2023-04-14T01:52:11.939Z,69.67
2023-04-14T01:54:41.686Z,69.67
2023-04-14T01:57:11.475Z,69.67
2023-04-14T01:59:41.891Z,69.46
2023-04-14T02:02:11.987Z,69.48
2023-04-14T02:04:40.710Z,69.75
2023-04-14T02:07:11.042Z,69.74
2023-04-14T02:09:39.909Z,69.64
2023-04-14T02:12:09.533Z,69.65
2023-04-14T02:14:38.177Z,69.96
2023-04-14T02:17:07.612Z,69.74
2023-04-14T02:19:36.567Z,69.55
2023-04-14T02:22:05.067Z,69.47
2023-04-14T02:24:35.109Z,69.67
2023-04-14T02:27:12.024Z,69.67
2023-04-14T02:29:42.949Z,69.41
2023-04-14T02:32:16.585Z,69.68
2023-04-14T02:35:07.236Z,69.64
2023-04-14T02:37:38.453Z,69.52
2023-04-14T02:40:25.621Z,69.64
2023-04-14T02:42:58.037Z,69.33
2023-04-14T02:45:28.420Z,69.27
2023-04-14T02:48:00.226Z,69.57
2023-04-14T02:50:30.596Z,69.68
2023-04-14T02:53:04.922Z,69.56
2023-04-14T02:55:41.338Z,69.71
2023-04-14T02:58:09.931Z,69.64
2023-04-14T03:00:40.398Z,69.52
2023-04-14T03:03:11.966Z,69.50
2023-04-14T03:05:43.722Z,69.53
2023-04-14T03:08:12.819Z,69.67
2023-04-14T03:10:45.439Z,69.67
2023-04-14T03:13:14.740Z,69.60
2023-04-14T03:15:43.561Z,69.41
2023-04-14T03:18:12.505Z,69.30
2023-04-14T03:20:41.812Z,69.16
2023-04-14T03:23:12.480Z,69.24
2023-04-14T03:25:49.880Z,69.45
2023-04-14T03:28:25.177Z,69.22
2023-04-14T03:30:54.375Z,69.23
2023-04-14T03:33:28.895Z,69.39
2023-04-14T03:35:58.676Z,69.45
2023-04-14T03:38:28.521Z,69.45
2023-04-14T03:41:00.165Z,69.42
2023-04-14T03:43:29.854Z,69.37
2023-04-14T03:46:05.514Z,69.45
2023-04-14T03:48:35.833Z,69.68
2023-04-14T03:51:04.623Z,69.67
2023-04-14T03:53:34.980Z,69.86
2023-04-14T03:56:03.630Z,70.09
2023-04-14T03:58:35.311Z,70.02
2023-04-14T04:01:04.320Z,70.00
2023-04-14T04:03:35.687Z,69.74
2023-04-14T04:06:04.606Z,70.10
2023-04-14T04:08:33.350Z,69.89
2023-04-14T04:11:02.020Z,69.91
2023-04-14T04:13:30.698Z,69.89
2023-04-14T04:15:59.400Z,69.92
2023-04-14T04:18:28.908Z,69.65
2023-04-14T04:20:57.430Z,69.91
2023-04-14T04:23:26.089Z,69.84
2023-04-14T04:25:55.579Z,69.43
2023-04-14T04:28:47.306Z,69.47
2023-04-14T04:31:22.679Z,69.20
2023-04-14T04:33:51.660Z,69.17
2023-04-14T04:36:28.648Z,68.96
2023-04-14T04:38:57.753Z,68.26
2023-04-14T04:41:28.842Z,68.65
2023-04-14T04:43:59.325Z,68.83
2023-04-14T04:46:44.596Z,68.52
2023-04-14T04:49:13.480Z,68.02
2023-04-14T04:51:43.648Z,68.79
2023-04-14T04:54:12.292Z,68.65
2023-04-14T04:56:41.372Z,69.22
2023-04-14T04:59:09.801Z,69.01
2023-04-14T05:01:40.213Z,68.98
2023-04-14T05:04:09.020Z,69.03
2023-04-14T05:06:37.768Z,69.22
2023-04-14T05:09:13.139Z,68.89
2023-04-14T05:11:42.602Z,68.58
2023-04-14T05:14:11.457Z,68.79
2023-04-14T05:16:39.982Z,68.79
2023-04-14T05:19:11.940Z,68.33
2023-04-14T05:21:42.568Z,68.71
2023-04-14T05:24:11.628Z,68.55
2023-04-14T05:29:11.807Z,68.14
2023-04-14T05:31:40.785Z,68.23
2023-04-14T05:34:09.498Z,67.98
2023-04-14T05:36:38.752Z,68.17
2023-04-14T05:39:07.468Z,67.90
2023-04-14T05:41:39.527Z,67.96
2023-04-14T05:44:08.575Z,68.38
2023-04-14T05:46:37.372Z,68.63
2023-04-14T05:49:06.651Z,68.00
2023-04-14T05:51:36.362Z,68.34
2023-04-14T05:54:07.836Z,68.28
2023-04-14T05:56:36.979Z,68.17
2023-04-14T05:59:05.857Z,68.34
2023-04-14T06:01:34.842Z,68.40
2023-04-14T06:04:05.105Z,68.15
2023-04-14T06:06:34.092Z,68.06
2023-04-14T06:09:04.202Z,68.28
2023-04-14T06:11:34.062Z,68.10
2023-04-14T06:14:05.645Z,68.15
2023-04-14T06:16:38.616Z,67.97
2023-04-14T06:19:08.543Z,67.94
2023-04-14T06:21:37.540Z,67.70
2023-04-14T06:24:06.322Z,67.91
2023-04-14T06:26:35.053Z,67.62
2023-04-14T06:29:03.775Z,67.57
2023-04-14T06:31:32.578Z,67.74
2023-04-14T06:34:01.575Z,67.49
2023-04-14T06:36:32.152Z,67.31
2023-04-14T06:39:01.144Z,66.40
2023-04-14T06:41:33.589Z,66.62
2023-04-14T06:44:10.402Z,66.69
2023-04-14T06:46:39.768Z,66.53
2023-04-14T06:49:08.709Z,66.62
2023-04-14T06:51:40.958Z,66.13
2023-04-14T06:54:09.643Z,65.71
2023-04-14T06:56:38.640Z,66.31
2023-04-14T06:59:07.710Z,66.46
2023-04-14T07:01:36.916Z,66.79
2023-04-14T07:04:07.770Z,66.45
2023-04-14T07:06:37.026Z,66.83
2023-04-14T07:09:07.278Z,66.54
2023-04-14T07:11:36.029Z,66.66
2023-04-14T07:14:04.845Z,66.23
2023-04-14T07:16:39.783Z,66.55
2023-04-14T07:19:08.902Z,66.76
2023-04-14T07:21:37.907Z,66.38
2023-04-14T07:24:09.725Z,66.21
2023-04-14T07:26:40.206Z,66.52
2023-04-14T07:29:08.741Z,66.70
2023-04-14T07:31:39.166Z,66.80
2023-04-14T07:34:11.802Z,66.96
2023-04-14T07:36:40.282Z,66.94
2023-04-14T07:39:08.847Z,67.16
2023-04-14T07:41:38.185Z,67.14
2023-04-14T07:44:07.184Z,67.11
2023-04-14T07:46:36.097Z,67.02
2023-04-14T07:49:04.687Z,67.23
2023-04-14T07:51:33.197Z,67.26
2023-04-14T07:54:01.968Z,66.84
2023-04-14T07:56:30.939Z,66.89
2023-04-14T07:59:00.761Z,66.61
2023-04-14T08:01:29.629Z,65.58
2023-04-14T08:03:58.828Z,65.94
2023-04-14T08:06:28.696Z,65.95
2023-04-14T08:08:57.523Z,65.34
2023-04-14T08:11:26.626Z,66.03
2023-04-14T08:13:56.047Z,65.39
2023-04-14T08:16:26.752Z,64.77
2023-04-14T08:18:57.294Z,65.38
2023-04-14T08:21:27.948Z,63.76
2023-04-14T08:24:00.105Z,64.62
2023-04-14T08:26:28.885Z,63.62
2023-04-14T08:28:57.252Z,63.89
2023-04-14T08:31:29.184Z,64.68
2023-04-14T08:33:58.016Z,64.14
2023-04-14T08:36:27.980Z,64.48
2023-04-14T08:39:01.612Z,63.86
2023-04-14T08:41:36.540Z,64.38
2023-04-14T08:44:05.709Z,63.40
2023-04-14T08:46:39.144Z,63.06
2023-04-14T08:49:08.332Z,63.64
2023-04-14T08:51:39.120Z,63.22
2023-04-14T08:54:10.453Z,62.50
2023-04-14T08:56:43.029Z,61.79
2023-04-14T08:59:11.795Z,62.70
2023-04-14T09:01:40.328Z,62.90
2023-04-14T09:04:10.041Z,62.99
2023-04-14T09:06:38.645Z,62.52
2023-04-14T09:09:09.482Z,63.32
2023-04-14T09:11:38.098Z,63.80
2023-04-14T09:14:06.639Z,63.85
2023-04-14T09:16:36.345Z,64.12
2023-04-14T09:19:07.139Z,64.48
2023-04-14T09:21:52.653Z,64.34
2023-04-14T09:24:32.466Z,63.90
2023-04-14T09:27:08.105Z,64.37
2023-04-14T09:29:37.618Z,64.31
2023-04-14T09:32:12.016Z,64.46
2023-04-14T09:34:56.503Z,64.33
2023-04-14T09:37:27.220Z,64.63
2023-04-14T09:39:58.338Z,64.96
2023-04-14T09:42:40.266Z,64.80
2023-04-14T09:45:09.782Z,64.74
2023-04-14T09:47:39.375Z,64.91
2023-04-14T09:50:08.557Z,65.17
2023-04-14T09:52:38.780Z,64.99
2023-04-14T09:55:12.675Z,64.80
2023-04-14T09:57:44.888Z,64.78
2023-04-14T10:00:16.619Z,64.75
2023-04-14T10:03:09.968Z,64.52
2023-04-14T10:05:39.666Z,64.55
2023-04-14T10:08:08.253Z,64.89
2023-04-14T10:10:36.731Z,64.69
2023-04-14T10:13:08.614Z,64.43
2023-04-14T10:15:40.061Z,63.15
2023-04-14T10:18:08.632Z,63.92
2023-04-14T10:20:38.288Z,63.79
2023-04-14T10:23:07.255Z,63.83
2023-04-14T10:25:35.801Z,63.71
2023-04-14T10:28:06.104Z,63.82
2023-04-14T10:30:36.152Z,63.05
2023-04-14T10:33:04.727Z,63.94
2023-04-14T10:35:41.056Z,62.86
2023-04-14T10:38:09.878Z,63.34
2023-04-14T10:40:48.692Z,62.87
2023-04-14T10:43:17.901Z,62.75
2023-04-14T10:45:56.454Z,61.36
2023-04-14T10:48:39.190Z,61.51
2023-04-14T10:51:09.858Z,62.57
2023-04-14T10:53:52.525Z,63.41
2023-04-14T10:56:24.706Z,64.29
2023-04-14T10:58:57.349Z,65.32
2023-04-14T11:01:26.793Z,64.96
2023-04-14T11:03:56.992Z,65.67
2023-04-14T11:06:47.232Z,65.67
2023-04-14T11:09:23.288Z,65.12
2023-04-14T11:11:52.418Z,65.37
2023-04-14T11:14:28.101Z,65.72
2023-04-14T11:17:05.729Z,64.65
2023-04-14T11:19:34.414Z,63.59
2023-04-14T11:22:02.921Z,63.27
2023-04-14T11:24:31.644Z,62.85
2023-04-14T11:27:00.789Z,63.27
2023-04-14T11:29:31.476Z,63.52
2023-04-14T11:32:02.425Z,63.55
2023-04-14T11:34:31.594Z,64.08
2023-04-14T11:37:04.444Z,64.65
2023-04-14T11:39:33.100Z,64.77
2023-04-14T11:42:01.589Z,65.25
2023-04-14T11:44:30.628Z,65.41
2023-04-14T11:46:59.161Z,64.69
2023-04-14T11:49:36.813Z,64.15
2023-04-14T11:52:08.035Z,64.15
2023-04-14T11:54:38.259Z,64.22
2023-04-14T11:57:11.573Z,64.59
2023-04-14T11:59:44.370Z,64.26
2023-04-14T12:02:22.088Z,64.19
2023-04-14T12:04:51.977Z,63.79
2023-04-14T12:07:20.932Z,63.90
2023-04-14T12:09:58.028Z,62.86
2023-04-14T12:12:29.118Z,62.47
2023-04-14T12:14:58.042Z,61.21
2023-04-14T12:17:32.048Z,61.52
2023-04-14T12:20:04.427Z,61.93
2023-04-14T12:22:33.306Z,61.81
2023-04-14T12:25:11.108Z,60.89
2023-04-14T12:27:39.698Z,60.68
2023-04-14T12:30:09.875Z,61.03
2023-04-14T12:32:40.999Z,60.86
2023-04-14T12:35:09.793Z,61.30
2023-04-14T12:37:38.871Z,61.34
2023-04-14T12:40:08.728Z,61.43
2023-04-14T12:42:48.572Z,62.09
2023-04-14T12:45:17.305Z,63.38
2023-04-14T12:47:54.123Z,63.58
2023-04-14T12:50:30.620Z,63.12
2023-04-14T12:53:00.523Z,63.05
2023-04-14T12:55:30.688Z,63.22
2023-04-14T12:58:00.139Z,62.90
2023-04-14T13:00:28.685Z,62.90
2023-04-14T13:02:58.730Z,62.59
2023-04-14T13:05:31.675Z,63.23
2023-04-14T13:08:00.191Z,63.68
2023-04-14T13:10:29.213Z,64.88
2023-04-14T13:12:57.919Z,64.65
2023-04-14T13:16:13.026Z,64.22
2023-04-14T13:18:17.603Z,63.95
2023-04-14T13:20:58.441Z,63.72
2023-04-14T13:23:27.121Z,63.36
2023-04-14T13:25:56.420Z,63.97
2023-04-14T13:28:25.061Z,64.14
2023-04-14T13:30:55.808Z,63.51
2023-04-14T13:33:25.007Z,63.21
2023-04-14T13:35:53.826Z,63.07
2023-04-14T13:38:23.202Z,63.11
2023-04-14T13:40:52.078Z,63.22
2023-04-14T13:43:21.823Z,64.61
2023-04-14T13:45:50.550Z,65.93
2023-04-14T13:48:19.436Z,66.52
2023-04-14T13:50:50.205Z,66.91
2023-04-14T13:53:18.832Z,66.99
2023-04-14T13:55:47.806Z,68.03
2023-04-14T13:58:16.844Z,68.67
2023-04-14T14:00:45.825Z,68.90
2023-04-14T14:03:16.091Z,67.86
2023-04-14T14:05:45.509Z,68.10
2023-04-14T14:08:14.820Z,67.66
2023-04-14T14:10:45.955Z,66.94
2023-04-14T14:13:15.882Z,67.07
2023-04-14T14:15:46.405Z,67.03
2023-04-14T14:18:16.807Z,66.50
2023-04-14T14:20:45.381Z,66.46
2023-04-14T14:23:13.887Z,66.53
2023-04-14T14:25:45.146Z,66.60
2023-04-14T14:28:13.774Z,66.32
2023-04-14T14:30:42.863Z,66.31
2023-04-14T14:33:13.117Z,66.13
2023-04-14T14:35:41.753Z,65.81
2023-04-14T14:38:11.048Z,65.73
2023-04-14T14:40:43.272Z,65.75
2023-04-14T14:43:11.915Z,66.02
2023-04-14T14:45:40.489Z,65.99
2023-04-14T14:48:11.817Z,65.72
2023-04-14T14:50:40.381Z,65.74
2023-04-14T14:53:09.639Z,65.17
2023-04-14T14:55:38.423Z,65.13
2023-04-14T14:58:08.560Z,65.39
2023-04-14T15:00:38.905Z,65.23
2023-04-14T15:03:11.089Z,65.10
2023-04-14T15:05:39.935Z,65.25
2023-04-14T15:08:08.703Z,65.06
2023-04-14T15:10:44.310Z,64.99
2023-04-14T15:13:15.261Z,65.01
2023-04-14T15:15:43.826Z,65.00
2023-04-14T15:18:13.939Z,64.82
2023-04-14T15:20:42.748Z,64.71
2023-04-14T15:23:11.640Z,64.50
2023-04-14T15:25:40.094Z,64.56
2023-04-14T15:28:09.218Z,64.59
2023-04-14T15:30:37.895Z,64.55
2023-04-14T15:33:07.235Z,64.22
2023-04-14T15:35:39.452Z,63.91
2023-04-14T15:38:08.949Z,63.96
2023-04-14T15:40:39.735Z,64.29
2023-04-14T15:43:08.356Z,64.24
2023-04-14T15:45:38.004Z,63.82
2023-04-14T15:48:07.048Z,63.76
2023-04-14T15:50:44.523Z,63.93
2023-04-14T15:53:13.725Z,63.86
2023-04-14T15:55:42.342Z,63.93
2023-04-14T15:58:12.056Z,64.29
2023-04-14T16:00:40.964Z,64.57
2023-04-14T16:03:09.754Z,64.35
2023-04-14T16:05:42.116Z,64.32
2023-04-14T16:08:11.092Z,64.47
2023-04-14T16:10:42.907Z,64.45
2023-04-14T16:13:15.266Z,64.04
2023-04-14T16:15:44.859Z,64.33
2023-04-14T16:18:13.644Z,64.28
2023-04-14T16:20:42.209Z,63.94
2023-04-14T16:23:10.655Z,63.94
2023-04-14T16:25:39.846Z,63.50
2023-04-14T16:28:08.904Z,63.51
2023-04-14T16:30:39.264Z,63.75
2023-04-14T16:33:23.493Z,63.53
2023-04-14T16:35:52.100Z,63.38
2023-04-14T16:38:21.973Z,63.16
2023-04-14T16:40:57.642Z,62.80
2023-04-14T16:43:27.267Z,62.85
2023-04-14T16:46:03.146Z,62.65
2023-04-14T16:48:35.255Z,62.62
2023-04-14T16:51:08.696Z,62.41
2023-04-14T16:53:37.871Z,62.41
2023-04-14T16:56:10.117Z,62.31
2023-04-14T16:58:45.507Z,62.22
2023-04-14T17:01:16.021Z,62.17
2023-04-14T17:03:44.964Z,62.50
2023-04-14T17:06:13.491Z,62.52
2023-04-14T17:08:42.098Z,62.23
2023-04-14T17:11:10.937Z,62.41
2023-04-14T17:13:41.436Z,62.32
2023-04-14T17:16:12.043Z,62.58
2023-04-14T17:18:41.746Z,63.06
2023-04-14T17:21:10.642Z,63.16
2023-04-14T17:23:39.462Z,63.45
2023-04-14T17:26:08.084Z,63.43
2023-04-14T17:28:37.404Z,63.90
2023-04-14T17:31:06.346Z,64.39
2023-04-14T17:33:36.392Z,64.19
2023-04-14T17:36:05.144Z,63.83
2023-04-14T17:38:35.276Z,63.20
2023-04-14T17:41:04.092Z,62.80
2023-04-14T17:43:32.533Z,62.65
2023-04-14T17:46:01.424Z,62.33
2023-04-14T17:48:30.336Z,62.65
2023-04-14T17:51:02.088Z,62.77
2023-04-14T17:53:31.168Z,63.06
2023-04-14T17:55:59.995Z,62.97
2023-04-14T17:58:28.931Z,62.75
2023-04-14T18:00:57.654Z,62.60
2023-04-14T18:03:28.692Z,62.81
2023-04-14T18:05:57.668Z,62.85
2023-04-14T18:08:26.127Z,63.25
2023-04-14T18:10:59.331Z,63.01
2023-04-14T18:13:28.772Z,63.16
2023-04-14T18:15:57.623Z,62.75
2023-04-14T18:18:32.974Z,62.47
2023-04-14T18:21:02.428Z,62.04
2023-04-14T18:23:31.608Z,61.89
2023-04-14T18:28:34.689Z,61.52
2023-04-14T18:31:04.238Z,61.29
2023-04-14T18:33:32.975Z,61.15
2023-04-14T18:36:02.590Z,61.29
2023-04-14T18:38:31.253Z,61.54
2023-04-14T18:41:03.776Z,61.36
2023-04-14T18:43:33.413Z,61.63
2023-04-14T18:46:02.538Z,62.03
2023-04-14T18:48:34.990Z,61.95
2023-04-14T18:51:09.543Z,62.08
2023-04-14T18:53:40.371Z,62.09
2023-04-14T18:56:11.224Z,62.17
2023-04-14T18:58:40.336Z,62.48
2023-04-14T19:01:09.881Z,62.76
2023-04-14T19:03:39.852Z,62.73
2023-04-14T19:06:09.139Z,63.02
2023-04-14T19:08:37.978Z,63.29
2023-04-14T19:11:11.713Z,63.10
2023-04-14T19:13:43.844Z,62.82
2023-04-14T19:16:12.836Z,62.52
2023-04-14T19:18:41.928Z,61.45
2023-04-14T19:21:14.349Z,60.48
2023-04-14T19:23:45.925Z,60.49
2023-04-14T19:26:14.952Z,60.25
2023-04-14T19:28:46.070Z,60.45
2023-04-14T19:31:15.062Z,60.75
2023-04-14T19:33:45.460Z,60.61
2023-04-14T19:36:15.097Z,60.67
2023-04-14T19:38:46.694Z,61.00
2023-04-14T19:41:15.902Z,61.11
2023-04-14T19:43:45.863Z,61.13
2023-04-14T19:46:15.335Z,61.14
2023-04-14T19:48:45.374Z,61.10
2023-04-14T19:51:14.179Z,61.33
2023-04-14T19:53:46.423Z,61.23
2023-04-14T19:56:15.525Z,61.32
2023-04-14T19:58:44.391Z,61.24
2023-04-14T20:01:13.211Z,61.17
2023-04-14T20:04:05.021Z,61.41
2023-04-14T20:06:31.099Z,61.18
2023-04-14T20:09:02.106Z,61.17
2023-04-14T20:11:31.451Z,61.56
2023-04-14T20:13:59.713Z,61.52
2023-04-14T20:16:31.574Z,61.75
2023-04-14T20:19:03.938Z,61.35
2023-04-14T20:21:33.046Z,61.34
2023-04-14T20:24:01.873Z,61.32
2023-04-14T20:26:33.028Z,61.40
2023-04-14T20:29:03.230Z,61.49
2023-04-14T20:31:32.309Z,61.60
2023-04-14T20:34:00.826Z,61.80
2023-04-14T20:36:35.666Z,61.60
2023-04-14T20:39:06.142Z,61.48
2023-04-14T20:41:39.358Z,61.51
2023-04-14T20:44:09.876Z,61.41
2023-04-14T20:46:38.637Z,61.04
2023-04-14T20:49:12.078Z,60.97
2023-04-14T20:51:40.988Z,60.60
2023-04-14T20:54:09.584Z,60.63
2023-04-14T20:56:47.781Z,60.61
2023-04-14T20:59:16.798Z,60.93
2023-04-14T21:01:48.955Z,61.68
2023-04-14T21:04:18.074Z,61.31
2023-04-14T21:06:46.779Z,61.30
2023-04-14T21:09:15.657Z,61.38
2023-04-14T21:11:44.361Z,61.42
2023-04-14T21:15:29.968Z,61.62
2023-04-14T21:17:03.911Z,61.53
2023-04-14T21:19:33.546Z,61.67
2023-04-14T21:22:12.213Z,61.75
2023-04-14T21:24:48.917Z,61.79
2023-04-14T21:27:20.115Z,61.92
2023-04-14T21:29:50.683Z,61.82
2023-04-14T21:32:20.317Z,61.72
2023-04-14T21:34:50.222Z,62.21
2023-04-14T21:37:59.401Z,62.07
